Aviation Digital Data Service (ADDS)

Output produced by METARs form (0342 UTC 26 June 2019)
found at http://www.aviationweather.gov/metar/data/
 
METAR text: WBGB 260300Z VRB03KT 9999 SCT014 BKN300 31/26 Q1010
Conditions at: WBGB (BINTULU/KALIMANT, MY) observed 0300 UTC 26 June 2019
Temperature: 31.0°C (88°F)
Dewpoint: 26.0°C (79°F) [RH = 75%]
Pressure (altimeter): 29.82 inches Hg (1010.0 mb)
Winds: variable direction winds at 3 MPH (3 knots; 1.5 m/s)
Visibility: 6 or more miles (10+ km)
Ceiling: 30000 feet AGL
Clouds: scattered clouds at 1400 feet AGL
broken clouds at 30000 feet AGL
Weather: no significant weather observed at this time

METAR text: WBGB 260200Z 11003KT 9999 FEW012 FEW015CB SCT150 BKN300 30/26 Q1011
Conditions at: WBGB (BINTULU/KALIMANT, MY) observed 0200 UTC 26 June 2019
Temperature: 30.0°C (86°F)
Dewpoint: 26.0°C (79°F) [RH = 79%]
Pressure (altimeter): 29.85 inches Hg (1011.0 mb)
Winds: from the ESE (110 degrees) at 3 MPH (3 knots; 1.5 m/s)
Visibility: 6 or more miles (10+ km)
Ceiling: 30000 feet AGL
Clouds: few clouds at 1200 feet AGL
few clouds at 1500 feet AGL
scattered clouds at 15000 feet AGL
broken clouds at 30000 feet AGL
Weather: no significant weather observed at this time

METAR text: WBGB 260100Z 00000KT 9999 FEW008 SCT150 BKN300 29/26 Q1011
Conditions at: WBGB (BINTULU/KALIMANT, MY) observed 0100 UTC 26 June 2019
Temperature: 29.0°C (84°F)
Dewpoint: 26.0°C (79°F) [RH = 84%]
Pressure (altimeter): 29.85 inches Hg (1011.0 mb)
Winds: calm
Visibility: 6 or more miles (10+ km)
Ceiling: 30000 feet AGL
Clouds: few clouds at 800 feet AGL
scattered clouds at 15000 feet AGL
broken clouds at 30000 feet AGL
Weather: no significant weather observed at this time

METAR text: WBGB 260000Z 09002KT 9999 FEW008 BKN150 27/25 Q1011
Conditions at: WBGB (BINTULU/KALIMANT, MY) observed 0000 UTC 26 June 2019
Temperature: 27.0°C (81°F)
Dewpoint: 25.0°C (77°F) [RH = 89%]
Pressure (altimeter): 29.85 inches Hg (1011.0 mb)
Winds: from the E (90 degrees) at 2 MPH (2 knots; 1.0 m/s)
Visibility: 6 or more miles (10+ km)
Ceiling: 15000 feet AGL
Clouds: few clouds at 800 feet AGL
broken clouds at 15000 feet AGL
Weather: no significant weather observed at this time

METAR text: WBGB 252300Z 10003KT 9999 FEW002 BKN150 26/25 Q1011
Conditions at: WBGB (BINTULU/KALIMANT, MY) observed 2300 UTC 25 June 2019
Temperature: 26.0°C (79°F)
Dewpoint: 25.0°C (77°F) [RH = 94%]
Pressure (altimeter): 29.85 inches Hg (1011.0 mb)
Winds: from the E (100 degrees) at 3 MPH (3 knots; 1.5 m/s)
Visibility: 6 or more miles (10+ km)
Ceiling: 15000 feet AGL
Clouds: few clouds at 200 feet AGL
broken clouds at 15000 feet AGL
Weather: no significant weather observed at this time

METAR text: WBGB 252200Z 08002KT 9999 FEW015CB SCT150 BKN300 25/24 Q1010
Conditions at: WBGB (BINTULU/KALIMANT, MY) observed 2200 UTC 25 June 2019
Temperature: 25.0°C (77°F)
Dewpoint: 24.0°C (75°F) [RH = 94%]
Pressure (altimeter): 29.82 inches Hg (1010.0 mb)
Winds: from the E (80 degrees) at 2 MPH (2 knots; 1.0 m/s)
Visibility: 6 or more miles (10+ km)
Ceiling: 30000 feet AGL
Clouds: few clouds at 1500 feet AGL
scattered clouds at 15000 feet AGL
broken clouds at 30000 feet AGL
Weather: no significant weather observed at this time

METAR text: WBGB 252100Z 12004KT 9999 FEW016 BKN150 26/25 Q1010
Conditions at: WBGB (BINTULU/KALIMANT, MY) observed 2100 UTC 25 June 2019
Temperature: 26.0°C (79°F)
Dewpoint: 25.0°C (77°F) [RH = 94%]
Pressure (altimeter): 29.82 inches Hg (1010.0 mb)
Winds: from the ESE (120 degrees) at 5 MPH (4 knots; 2.1 m/s)
Visibility: 6 or more miles (10+ km)
Ceiling: 15000 feet AGL
Clouds: few clouds at 1600 feet AGL
broken clouds at 15000 feet AGL
Weather: no significant weather observed at this time

METAR text: WBGB 252000Z 00000KT 9999 FEW016 SCT150 BKN300 25/25 Q1009
Conditions at: WBGB (BINTULU/KALIMANT, MY) observed 2000 UTC 25 June 2019
Temperature: 25.0°C (77°F)
Dewpoint: 25.0°C (77°F) [RH = 100%]
Pressure (altimeter): 29.79 inches Hg (1009.0 mb)
Winds: calm
Visibility: 6 or more miles (10+ km)
Ceiling: 30000 feet AGL
Clouds: few clouds at 1600 feet AGL
scattered clouds at 15000 feet AGL
broken clouds at 30000 feet AGL
Weather: no significant weather observed at this time

METAR text: WBGB 251900Z 05001KT 9999 FEW001 SCT150 BKN300 26/25 Q1010
Conditions at: WBGB (BINTULU/KALIMANT, MY) observed 1900 UTC 25 June 2019
Temperature: 26.0°C (79°F)
Dewpoint: 25.0°C (77°F) [RH = 94%]
Pressure (altimeter): 29.82 inches Hg (1010.0 mb)
Winds: from the NE (50 degrees) at 1 MPH (1 knots; 0.5 m/s)
Visibility: 6 or more miles (10+ km)
Ceiling: 30000 feet AGL
Clouds: few clouds at 100 feet AGL
scattered clouds at 15000 feet AGL
broken clouds at 30000 feet AGL
Weather: no significant weather observed at this time

METAR text: WBGB 251800Z 13004KT 9999 FEW016 BKN150 26/25 Q1010
Conditions at: WBGB (BINTULU/KALIMANT, MY) observed 1800 UTC 25 June 2019
Temperature: 26.0°C (79°F)
Dewpoint: 25.0°C (77°F) [RH = 94%]
Pressure (altimeter): 29.82 inches Hg (1010.0 mb)
Winds: from the SE (130 degrees) at 5 MPH (4 knots; 2.1 m/s)
Visibility: 6 or more miles (10+ km)
Ceiling: 15000 feet AGL
Clouds: few clouds at 1600 feet AGL
broken clouds at 15000 feet AGL
Weather: no significant weather observed at this time

METAR text: WBGB 251700Z 07003KT 9999 FEW016 SCT150 BKN300 26/25 Q1010
Conditions at: WBGB (BINTULU/KALIMANT, MY) observed 1700 UTC 25 June 2019
Temperature: 26.0°C (79°F)
Dewpoint: 25.0°C (77°F) [RH = 94%]
Pressure (altimeter): 29.82 inches Hg (1010.0 mb)
Winds: from the ENE (70 degrees) at 3 MPH (3 knots; 1.5 m/s)
Visibility: 6 or more miles (10+ km)
Ceiling: 30000 feet AGL
Clouds: few clouds at 1600 feet AGL
scattered clouds at 15000 feet AGL
broken clouds at 30000 feet AGL
Weather: no significant weather observed at this time

METAR text: WBGB 251600Z 10003KT 9999 FEW016 SCT150 BKN300 26/25 Q1011
Conditions at: WBGB (BINTULU/KALIMANT, MY) observed 1600 UTC 25 June 2019
Temperature: 26.0°C (79°F)
Dewpoint: 25.0°C (77°F) [RH = 94%]
Pressure (altimeter): 29.85 inches Hg (1011.0 mb)
Winds: from the E (100 degrees) at 3 MPH (3 knots; 1.5 m/s)
Visibility: 6 or more miles (10+ km)
Ceiling: 30000 feet AGL
Clouds: few clouds at 1600 feet AGL
scattered clouds at 15000 feet AGL
broken clouds at 30000 feet AGL
Weather: no significant weather observed at this time

METAR text: WBGB 251500Z 09003KT 9999 FEW016 SCT150 BKN300 26/25 Q1011
Conditions at: WBGB (BINTULU/KALIMANT, MY) observed 1500 UTC 25 June 2019
Temperature: 26.0°C (79°F)
Dewpoint: 25.0°C (77°F) [RH = 94%]
Pressure (altimeter): 29.85 inches Hg (1011.0 mb)
Winds: from the E (90 degrees) at 3 MPH (3 knots; 1.5 m/s)
Visibility: 6 or more miles (10+ km)
Ceiling: 30000 feet AGL
Clouds: few clouds at 1600 feet AGL
scattered clouds at 15000 feet AGL
broken clouds at 30000 feet AGL
Weather: no significant weather observed at this time

METAR text: WBGB 251400Z 09004KT 9999 FEW016 SCT150 BKN300 27/25 Q1011
Conditions at: WBGB (BINTULU/KALIMANT, MY) observed 1400 UTC 25 June 2019
Temperature: 27.0°C (81°F)
Dewpoint: 25.0°C (77°F) [RH = 89%]
Pressure (altimeter): 29.85 inches Hg (1011.0 mb)
Winds: from the E (90 degrees) at 5 MPH (4 knots; 2.1 m/s)
Visibility: 6 or more miles (10+ km)
Ceiling: 30000 feet AGL
Clouds: few clouds at 1600 feet AGL
scattered clouds at 15000 feet AGL
broken clouds at 30000 feet AGL
Weather: no significant weather observed at this time

METAR text: WBGB 251300Z VRB03KT 9999 FEW016 SCT150 BKN300 27/26 Q1010
Conditions at: WBGB (BINTULU/KALIMANT, MY) observed 1300 UTC 25 June 2019
Temperature: 27.0°C (81°F)
Dewpoint: 26.0°C (79°F) [RH = 94%]
Pressure (altimeter): 29.82 inches Hg (1010.0 mb)
Winds: variable direction winds at 3 MPH (3 knots; 1.5 m/s)
Visibility: 6 or more miles (10+ km)
Ceiling: 30000 feet AGL
Clouds: few clouds at 1600 feet AGL
scattered clouds at 15000 feet AGL
broken clouds at 30000 feet AGL
Weather: no significant weather observed at this time

METAR text: WBGB 251200Z 00000KT 9999 FEW016 SCT150 BKN300 28/26 Q1009
Conditions at: WBGB (BINTULU/KALIMANT, MY) observed 1200 UTC 25 June 2019
Temperature: 28.0°C (82°F)
Dewpoint: 26.0°C (79°F) [RH = 89%]
Pressure (altimeter): 29.79 inches Hg (1009.0 mb)
Winds: calm
Visibility: 6 or more miles (10+ km)
Ceiling: 30000 feet AGL
Clouds: few clouds at 1600 feet AGL
scattered clouds at 15000 feet AGL
broken clouds at 30000 feet AGL
Weather: no significant weather observed at this time

METAR text: WBGB 251100Z 00000KT 9999 FEW016 BKN300 29/27 Q1009
Conditions at: WBGB (BINTULU/KALIMANT, MY) observed 1100 UTC 25 June 2019
Temperature: 29.0°C (84°F)
Dewpoint: 27.0°C (81°F) [RH = 89%]
Pressure (altimeter): 29.79 inches Hg (1009.0 mb)
Winds: calm
Visibility: 6 or more miles (10+ km)
Ceiling: 30000 feet AGL
Clouds: few clouds at 1600 feet AGL
broken clouds at 30000 feet AGL
Weather: no significant weather observed at this time

METAR text: WBGB 251000Z VRB02KT 9999 FEW015CB BKN300 31/26 Q1008
Conditions at: WBGB (BINTULU/KALIMANT, MY) observed 1000 UTC 25 June 2019
Temperature: 31.0°C (88°F)
Dewpoint: 26.0°C (79°F) [RH = 75%]
Pressure (altimeter): 29.76 inches Hg (1008.0 mb)
Winds: variable direction winds at 2 MPH (2 knots; 1.0 m/s)
Visibility: 6 or more miles (10+ km)
Ceiling: 30000 feet AGL
Clouds: few clouds at 1500 feet AGL
broken clouds at 30000 feet AGL
Weather: no significant weather observed at this time

METAR text: WBGB 250900Z 29004KT 240V350 9999 FEW015CB SCT150 31/27 Q1008 RETS
Conditions at: WBGB (BINTULU/KALIMANT, MY) observed 0900 UTC 25 June 2019
Temperature: 31.0°C (88°F)
Dewpoint: 27.0°C (81°F) [RH = 79%]
Pressure (altimeter): 29.76 inches Hg (1008.0 mb)
Winds: from the WNW (290 degrees) at 5 MPH (4 knots; 2.1 m/s)
Visibility: 6 or more miles (10+ km)
Ceiling: at least 12,000 feet AGL
Clouds: few clouds at 1500 feet AGL
scattered clouds at 15000 feet AGL
Weather: no significant weather observed at this time

METAR text: WBGB 250800Z VRB03KT 9999 TS FEW015CB BKN150 30/26 Q1008
Conditions at: WBGB (BINTULU/KALIMANT, MY) observed 0800 UTC 25 June 2019
Temperature: 30.0°C (86°F)
Dewpoint: 26.0°C (79°F) [RH = 79%]
Pressure (altimeter): 29.76 inches Hg (1008.0 mb)
Winds: variable direction winds at 3 MPH (3 knots; 1.5 m/s)
Visibility: 6 or more miles (10+ km)
Ceiling: 15000 feet AGL
Clouds: few clouds at 1500 feet AGL
broken clouds at 15000 feet AGL
Weather: TS  (thunderstorm)

METAR text: WBGB 250700Z VRB03KT 9999 TS FEW015CB SCT016 BKN150 31/27 Q1008
Conditions at: WBGB (BINTULU/KALIMANT, MY) observed 0700 UTC 25 June 2019
Temperature: 31.0°C (88°F)
Dewpoint: 27.0°C (81°F) [RH = 79%]
Pressure (altimeter): 29.76 inches Hg (1008.0 mb)
Winds: variable direction winds at 3 MPH (3 knots; 1.5 m/s)
Visibility: 6 or more miles (10+ km)
Ceiling: 15000 feet AGL
Clouds: few clouds at 1500 feet AGL
scattered clouds at 1600 feet AGL
broken clouds at 15000 feet AGL
Weather: TS  (thunderstorm)

METAR text: WBGB 250600Z 27003KT 220V310 9999 FEW015CB SCT016 BKN150 30/27 Q1009
Conditions at: WBGB (BINTULU/KALIMANT, MY) observed 0600 UTC 25 June 2019
Temperature: 30.0°C (86°F)
Dewpoint: 27.0°C (81°F) [RH = 84%]
Pressure (altimeter): 29.79 inches Hg (1009.0 mb)
Winds: from the W (270 degrees) at 3 MPH (3 knots; 1.5 m/s)
Visibility: 6 or more miles (10+ km)
Ceiling: 15000 feet AGL
Clouds: few clouds at 1500 feet AGL
scattered clouds at 1600 feet AGL
broken clouds at 15000 feet AGL
Weather: no significant weather observed at this time

METAR text: WBGB 250500Z 15004KT 100V220 9999 SCT016 BKN150 31/26 Q1009
Conditions at: WBGB (BINTULU/KALIMANT, MY) observed 0500 UTC 25 June 2019
Temperature: 31.0°C (88°F)
Dewpoint: 26.0°C (79°F) [RH = 75%]
Pressure (altimeter): 29.79 inches Hg (1009.0 mb)
Winds: from the SSE (150 degrees) at 5 MPH (4 knots; 2.1 m/s)
Visibility: 6 or more miles (10+ km)
Ceiling: 15000 feet AGL
Clouds: scattered clouds at 1600 feet AGL
broken clouds at 15000 feet AGL
Weather: no significant weather observed at this time

METAR text: WBGB 250400Z VRB04KT 9999 SCT016 BKN150 32/27 Q1010
Conditions at: WBGB (BINTULU/KALIMANT, MY) observed 0400 UTC 25 June 2019
Temperature: 32.0°C (90°F)
Dewpoint: 27.0°C (81°F) [RH = 75%]
Pressure (altimeter): 29.82 inches Hg (1010.0 mb)
Winds: variable direction winds at 5 MPH (4 knots; 2.1 m/s)
Visibility: 6 or more miles (10+ km)
Ceiling: 15000 feet AGL
Clouds: scattered clouds at 1600 feet AGL
broken clouds at 15000 feet AGL
Weather: no significant weather observed at this time

METAR text: WBGB 250300Z 09003KT 340V150 9999 SCT014 BKN150 31/26 Q1011
Conditions at: WBGB (BINTULU/KALIMANT, MY) observed 0300 UTC 25 June 2019
Temperature: 31.0°C (88°F)
Dewpoint: 26.0°C (79°F) [RH = 75%]
Pressure (altimeter): 29.85 inches Hg (1011.0 mb)
Winds: from the E (90 degrees) at 3 MPH (3 knots; 1.5 m/s)
Visibility: 6 or more miles (10+ km)
Ceiling: 15000 feet AGL
Clouds: scattered clouds at 1400 feet AGL
broken clouds at 15000 feet AGL
Weather: no significant weather observed at this time

METAR text: WBGB 250200Z 08005KT 020V150 9999 FEW016 SCT150 BKN300 30/26 Q1012
Conditions at: WBGB (BINTULU/KALIMANT, MY) observed 0200 UTC 25 June 2019
Temperature: 30.0°C (86°F)
Dewpoint: 26.0°C (79°F) [RH = 79%]
Pressure (altimeter): 29.88 inches Hg (1012.0 mb)
Winds: from the E (80 degrees) at 6 MPH (5 knots; 2.6 m/s)
Visibility: 6 or more miles (10+ km)
Ceiling: 30000 feet AGL
Clouds: few clouds at 1600 feet AGL
scattered clouds at 15000 feet AGL
broken clouds at 30000 feet AGL
Weather: no significant weather observed at this time

METAR text: WBGB 250100Z VRB03KT 9999 FEW008 BKN150 28/26 Q1011 RERA
Conditions at: WBGB (BINTULU/KALIMANT, MY) observed 0100 UTC 25 June 2019
Temperature: 28.0°C (82°F)
Dewpoint: 26.0°C (79°F) [RH = 89%]
Pressure (altimeter): 29.85 inches Hg (1011.0 mb)
Winds: variable direction winds at 3 MPH (3 knots; 1.5 m/s)
Visibility: 6 or more miles (10+ km)
Ceiling: 15000 feet AGL
Clouds: few clouds at 800 feet AGL
broken clouds at 15000 feet AGL
Weather: no significant weather observed at this time

METAR text: WBGB 250000Z 00000KT 9999 -RA FEW008 SCT016 BKN150 26/25 Q1012
Conditions at: WBGB (BINTULU/KALIMANT, MY) observed 0000 UTC 25 June 2019
Temperature: 26.0°C (79°F)
Dewpoint: 25.0°C (77°F) [RH = 94%]
Pressure (altimeter): 29.88 inches Hg (1012.0 mb)
Winds: calm
Visibility: 6 or more miles (10+ km)
Ceiling: 15000 feet AGL
Clouds: few clouds at 800 feet AGL
scattered clouds at 1600 feet AGL
broken clouds at 15000 feet AGL
Weather: -RA  (light rain)

METAR text: WBGB 242300Z 00000KT 8000 -RA FEW005 FEW015CB SCT016 OVC140 25/25 Q1011 RETSRA
Conditions at: WBGB (BINTULU/KALIMANT, MY) observed 2300 UTC 24 June 2019
Temperature: 25.0°C (77°F)
Dewpoint: 25.0°C (77°F) [RH = 100%]
Pressure (altimeter): 29.85 inches Hg (1011.0 mb)
Winds: calm
Visibility: 5 miles ( 8 km)
Ceiling: 14000 feet AGL
Clouds: few clouds at 500 feet AGL
few clouds at 1500 feet AGL
scattered clouds at 1600 feet AGL
overcast cloud deck at 14000 feet AGL
Weather: -RA  (light rain)

METAR text: WBGB 242200Z 31004KT 260V030 4000 TSRA FEW005 FEW015CB SCT016 BKN150 25/24 Q1011
Conditions at: WBGB (BINTULU/KALIMANT, MY) observed 2200 UTC 24 June 2019
Temperature: 25.0°C (77°F)
Dewpoint: 24.0°C (75°F) [RH = 94%]
Pressure (altimeter): 29.85 inches Hg (1011.0 mb)
Winds: from the NW (310 degrees) at 5 MPH (4 knots; 2.1 m/s)
Visibility: 2.49 miles (4.01 km)
Ceiling: 15000 feet AGL
Clouds: few clouds at 500 feet AGL
few clouds at 1500 feet AGL
scattered clouds at 1600 feet AGL
broken clouds at 15000 feet AGL
Weather: TSRA  (rain associated with thunderstorm(s))

METAR text: WBGB 242100Z VRB04KT 9999 TS FEW005 FEW015CB SCT016 BKN150 26/25 Q1010
Conditions at: WBGB (BINTULU/KALIMANT, MY) observed 2100 UTC 24 June 2019
Temperature: 26.0°C (79°F)
Dewpoint: 25.0°C (77°F) [RH = 94%]
Pressure (altimeter): 29.82 inches Hg (1010.0 mb)
Winds: variable direction winds at 5 MPH (4 knots; 2.1 m/s)
Visibility: 6 or more miles (10+ km)
Ceiling: 15000 feet AGL
Clouds: few clouds at 500 feet AGL
few clouds at 1500 feet AGL
scattered clouds at 1600 feet AGL
broken clouds at 15000 feet AGL
Weather: TS  (thunderstorm)

METAR text: WBGB 242000Z VRB03KT 9999 FEW005 SCT016 BKN150 26/26 Q1009
Conditions at: WBGB (BINTULU/KALIMANT, MY) observed 2000 UTC 24 June 2019
Temperature: 26.0°C (79°F)
Dewpoint: 26.0°C (79°F) [RH = 100%]
Pressure (altimeter): 29.79 inches Hg (1009.0 mb)
Winds: variable direction winds at 3 MPH (3 knots; 1.5 m/s)
Visibility: 6 or more miles (10+ km)
Ceiling: 15000 feet AGL
Clouds: few clouds at 500 feet AGL
scattered clouds at 1600 feet AGL
broken clouds at 15000 feet AGL
Weather: no significant weather observed at this time

METAR text: WBGB 241900Z 00000KT 9999 FEW005 SCT016 BKN150 26/26 Q1009
Conditions at: WBGB (BINTULU/KALIMANT, MY) observed 1900 UTC 24 June 2019
Temperature: 26.0°C (79°F)
Dewpoint: 26.0°C (79°F) [RH = 100%]
Pressure (altimeter): 29.79 inches Hg (1009.0 mb)
Winds: calm
Visibility: 6 or more miles (10+ km)
Ceiling: 15000 feet AGL
Clouds: few clouds at 500 feet AGL
scattered clouds at 1600 feet AGL
broken clouds at 15000 feet AGL
Weather: no significant weather observed at this time

METAR text: WBGB 241800Z VRB02KT 9999 SCT016 BKN150 27/26 Q1010
Conditions at: WBGB (BINTULU/KALIMANT, MY) observed 1800 UTC 24 June 2019
Temperature: 27.0°C (81°F)
Dewpoint: 26.0°C (79°F) [RH = 94%]
Pressure (altimeter): 29.82 inches Hg (1010.0 mb)
Winds: variable direction winds at 2 MPH (2 knots; 1.0 m/s)
Visibility: 6 or more miles (10+ km)
Ceiling: 15000 feet AGL
Clouds: scattered clouds at 1600 feet AGL
broken clouds at 15000 feet AGL
Weather: no significant weather observed at this time

METAR text: WBGB 241700Z 08003KT 9999 FEW016 BKN150 27/26 Q1010
Conditions at: WBGB (BINTULU/KALIMANT, MY) observed 1700 UTC 24 June 2019
Temperature: 27.0°C (81°F)
Dewpoint: 26.0°C (79°F) [RH = 94%]
Pressure (altimeter): 29.82 inches Hg (1010.0 mb)
Winds: from the E (80 degrees) at 3 MPH (3 knots; 1.5 m/s)
Visibility: 6 or more miles (10+ km)
Ceiling: 15000 feet AGL
Clouds: few clouds at 1600 feet AGL
broken clouds at 15000 feet AGL
Weather: no significant weather observed at this time

METAR text: WBGB 241600Z 07003KT 9999 FEW016 SCT150 BKN300 27/26 Q1011
Conditions at: WBGB (BINTULU/KALIMANT, MY) observed 1600 UTC 24 June 2019
Temperature: 27.0°C (81°F)
Dewpoint: 26.0°C (79°F) [RH = 94%]
Pressure (altimeter): 29.85 inches Hg (1011.0 mb)
Winds: from the ENE (70 degrees) at 3 MPH (3 knots; 1.5 m/s)
Visibility: 6 or more miles (10+ km)
Ceiling: 30000 feet AGL
Clouds: few clouds at 1600 feet AGL
scattered clouds at 15000 feet AGL
broken clouds at 30000 feet AGL
Weather: no significant weather observed at this time

Forecast for: WBGB (BINTULU/KALIMANT, MY)
Text: TAF WBGB 252300Z 2600/2700 VRB03KT 9999 FEW016
Forecast period: 0000 UTC 26 June 2019 to 0000 UTC 27 June 2019
Forecast type: FROM: standard forecast or significant change
Winds: variable direction winds at 3 MPH (3 knots; 1.5 m/s)
Visibility: 6 or more miles 10+ km)
Ceiling: at least 12,000 feet AGL
Clouds: few clouds at 1600 feet AGL
Weather: no significant weather forecast for this period